createdAt,value
2022-10-18T00:00:29.821Z,99322.44
2022-10-18T00:02:34.754Z,99321.56
2022-10-18T00:04:39.716Z,99324.19
2022-10-18T00:06:44.490Z,99323.38
2022-10-18T00:08:51.777Z,99319.09
2022-10-18T00:10:57.003Z,99323.56
2022-10-18T00:13:01.519Z,99327.25
2022-10-18T00:15:07.915Z,99328.19
2022-10-18T00:17:13.357Z,99340.38
2022-10-18T00:19:18.615Z,99331.72
2022-10-18T00:21:23.871Z,99332.94
2022-10-18T00:23:33.715Z,99336.41
2022-10-18T00:25:41.045Z,99336.41
2022-10-18T00:27:45.861Z,99326.91
2022-10-18T00:29:54.723Z,99340.94
2022-10-18T00:31:59.490Z,99335.69
2022-10-18T00:34:06.759Z,99328.59
2022-10-18T00:36:12.492Z,99330.38
2022-10-18T00:38:17.272Z,99337.38
2022-10-18T00:40:22.152Z,99336.53
2022-10-18T00:42:35.385Z,99333.00
2022-10-18T00:45:16.001Z,99326.09
2022-10-18T00:47:22.335Z,99329.78
2022-10-18T00:49:33.075Z,99322.91
2022-10-18T00:51:42.730Z,99325.66
2022-10-18T00:53:47.968Z,99327.50
2022-10-18T00:55:53.390Z,99324.81
2022-10-18T00:58:01.093Z,99334.34
2022-10-18T01:00:09.839Z,99325.63
2022-10-18T01:02:18.215Z,99323.97
2022-10-18T01:04:26.215Z,99324.88
2022-10-18T01:06:32.067Z,99328.34
2022-10-18T01:08:59.080Z,99329.13
2022-10-18T01:11:15.930Z,99319.72
2022-10-18T01:13:34.694Z,99323.25
2022-10-18T01:15:49.786Z,99314.59
2022-10-18T01:18:06.169Z,99308.66
2022-10-18T01:20:37.900Z,99304.53
2022-10-18T01:22:47.403Z,99315.22
2022-10-18T01:25:10.037Z,99308.31
2022-10-18T01:27:43.045Z,99307.53
2022-10-18T01:30:00.579Z,99303.22
2022-10-18T01:32:14.071Z,99298.75
2022-10-18T01:34:21.292Z,99306.50
2022-10-18T01:36:31.487Z,99298.50
2022-10-18T01:38:39.761Z,99302.81
2022-10-18T01:40:46.309Z,99291.41
2022-10-18T01:42:53.062Z,99297.50
2022-10-18T01:44:58.936Z,99293.94
2022-10-18T01:47:08.258Z,99287.06
2022-10-18T01:49:13.235Z,99288.94
2022-10-18T01:51:18.173Z,99288.97
2022-10-18T01:53:34.002Z,99293.38
2022-10-18T01:55:43.953Z,99291.66
2022-10-18T01:57:58.679Z,99289.97
2022-10-18T02:00:08.900Z,99291.78
2022-10-18T02:02:29.986Z,99280.53
2022-10-18T02:04:43.136Z,99284.19
2022-10-18T02:06:49.196Z,99288.69
2022-10-18T02:08:58.012Z,99286.94
2022-10-18T02:11:05.896Z,99286.19
2022-10-18T02:13:12.057Z,99293.25
2022-10-18T02:15:22.716Z,99290.63
2022-10-18T02:17:32.972Z,99296.03
2022-10-18T02:19:43.184Z,99292.69
2022-10-18T02:21:51.393Z,99300.59
2022-10-18T02:23:57.543Z,99297.97
2022-10-18T02:26:02.400Z,99297.00
2022-10-18T02:28:08.195Z,99294.56
2022-10-18T02:30:15.508Z,99298.25
2022-10-18T02:32:24.347Z,99297.53
2022-10-18T02:34:37.475Z,99301.06
2022-10-18T02:36:47.145Z,99298.56
2022-10-18T02:38:57.380Z,99303.09
2022-10-18T02:41:02.494Z,99307.63
2022-10-18T02:43:08.841Z,99311.34
2022-10-18T02:45:14.248Z,99314.97
2022-10-18T02:47:19.167Z,99311.66
2022-10-18T02:49:24.074Z,99303.78
2022-10-18T02:51:31.410Z,99308.28
2022-10-18T02:53:36.352Z,99311.03
2022-10-18T02:55:41.075Z,99305.91
2022-10-18T02:57:45.776Z,99311.06
2022-10-18T02:59:50.614Z,99306.72
2022-10-18T03:01:55.451Z,99311.06
2022-10-18T03:04:00.491Z,99316.19
2022-10-18T03:06:05.282Z,99311.81
2022-10-18T03:08:12.689Z,99309.09
2022-10-18T03:10:17.582Z,99302.00
2022-10-18T03:12:22.472Z,99301.03
2022-10-18T03:14:27.316Z,99303.03
2022-10-18T03:16:32.104Z,99297.78
2022-10-18T03:18:36.958Z,99301.34
2022-10-18T03:20:41.772Z,99297.06
2022-10-18T03:22:46.493Z,99296.28
2022-10-18T03:24:54.401Z,99291.03
2022-10-18T03:26:59.433Z,99293.66
2022-10-18T03:29:04.274Z,99284.94
2022-10-18T03:31:09.228Z,99294.59
2022-10-18T03:33:13.989Z,99293.66
2022-10-18T03:35:18.905Z,99286.66
2022-10-18T03:37:23.699Z,99284.88
2022-10-18T03:39:29.713Z,99286.59
2022-10-18T03:41:37.118Z,99284.81
2022-10-18T03:43:41.901Z,99288.28
2022-10-18T03:45:46.810Z,99285.63
2022-10-18T03:47:51.501Z,99282.91
2022-10-18T03:49:57.287Z,99277.69
2022-10-18T03:52:02.325Z,99272.28
2022-10-18T03:54:07.212Z,99274.78
2022-10-18T03:56:11.936Z,99271.09
2022-10-18T03:58:19.363Z,99271.78
2022-10-18T04:00:25.547Z,99264.63
2022-10-18T04:02:30.693Z,99267.09
2022-10-18T04:04:35.346Z,99263.63
2022-10-18T04:06:40.064Z,99264.56
2022-10-18T04:08:44.799Z,99266.25
2022-10-18T04:10:49.858Z,99260.03
2022-10-18T04:12:54.605Z,99264.22
2022-10-18T04:15:02.053Z,99261.47
2022-10-18T04:17:07.054Z,99264.03
2022-10-18T04:19:11.846Z,99261.28
2022-10-18T04:21:16.716Z,99263.75
2022-10-18T04:23:21.577Z,99257.53
2022-10-18T04:25:26.901Z,99259.31
2022-10-18T04:27:31.981Z,99255.84
2022-10-18T04:29:37.419Z,99248.81
2022-10-18T04:31:44.560Z,99255.97
2022-10-18T04:33:49.363Z,99255.09
2022-10-18T04:35:55.634Z,99262.84
2022-10-18T04:38:03.336Z,99255.84
2022-10-18T04:40:09.737Z,99252.22
2022-10-18T04:42:14.507Z,99257.44
2022-10-18T04:44:19.242Z,99259.22
2022-10-18T04:46:24.209Z,99253.94
2022-10-18T04:48:32.663Z,99248.69
2022-10-18T04:50:37.386Z,99249.41
2022-10-18T04:52:53.601Z,99244.16
2022-10-18T04:54:58.458Z,99249.25
2022-10-18T04:57:03.274Z,99250.38
2022-10-18T04:59:08.205Z,99244.28
2022-10-18T05:01:13.067Z,99246.13
2022-10-18T05:03:18.217Z,99251.22
2022-10-18T05:05:33.129Z,99242.78
2022-10-18T05:07:50.168Z,99234.13
2022-10-18T05:09:54.906Z,99235.72
2022-10-18T05:11:59.746Z,99242.59
2022-10-18T05:14:06.150Z,99242.66
2022-10-18T05:16:10.993Z,99244.44
2022-10-18T05:18:16.046Z,99237.41
2022-10-18T05:20:20.888Z,99231.22
2022-10-18T05:22:31.628Z,99233.75
2022-10-18T05:24:36.664Z,99223.31
2022-10-18T05:26:41.412Z,99225.09
2022-10-18T05:28:46.196Z,99223.38
2022-10-18T05:30:51.050Z,99224.28
2022-10-18T05:32:55.982Z,99227.06
2022-10-18T05:35:00.718Z,99225.41
2022-10-18T05:37:05.782Z,99232.25
2022-10-18T05:39:13.164Z,99232.16
2022-10-18T05:41:20.303Z,99237.22
2022-10-18T05:43:26.215Z,99231.03
2022-10-18T05:45:30.986Z,99233.53
2022-10-18T05:49:40.461Z,99236.94
2022-10-18T05:51:45.210Z,99230.72
2022-10-18T05:53:50.126Z,99232.59
2022-10-18T05:55:57.525Z,99236.84
2022-10-18T05:58:02.873Z,99234.22
2022-10-18T06:00:08.759Z,99233.34
2022-10-18T06:02:16.592Z,99239.34
2022-10-18T06:04:21.352Z,99231.34
2022-10-18T06:06:26.086Z,99230.28
2022-10-18T06:08:31.077Z,99225.84
2022-10-18T06:10:36.971Z,99229.22
2022-10-18T06:12:44.316Z,99236.81
2022-10-18T06:14:49.479Z,99229.66
2022-10-18T06:16:54.422Z,99241.91
2022-10-18T06:19:00.311Z,99233.91
2022-10-18T06:21:05.089Z,99239.88
2022-10-18T06:23:09.907Z,99243.34
2022-10-18T06:25:14.772Z,99252.91
2022-10-18T06:27:19.566Z,99250.16
2022-10-18T06:29:26.971Z,99245.63
2022-10-18T06:31:31.704Z,99250.88
2022-10-18T06:33:38.081Z,99241.28
2022-10-18T06:35:42.906Z,99237.97
2022-10-18T06:37:47.667Z,99250.28
2022-10-18T06:39:52.444Z,99248.59
2022-10-18T06:41:57.426Z,99252.25
2022-10-18T06:44:07.277Z,99259.16
2022-10-18T06:46:14.691Z,99254.78
2022-10-18T06:50:24.672Z,99253.84
2022-10-18T06:52:31.780Z,99255.47
2022-10-18T06:54:36.747Z,99251.06
2022-10-18T06:56:42.174Z,99253.50
2022-10-18T06:58:47.035Z,99252.44
2022-10-18T07:00:51.773Z,99247.88
2022-10-18T07:02:59.968Z,99243.28
2022-10-18T07:05:04.805Z,99249.94
2022-10-18T07:07:09.557Z,99246.13
2022-10-18T07:09:14.656Z,99233.66
2022-10-18T07:11:20.153Z,99228.56
2022-10-18T07:13:32.526Z,99239.81
2022-10-18T07:15:38.774Z,99235.41
2022-10-18T07:17:45.748Z,99236.28
2022-10-18T07:19:53.203Z,99242.44
2022-10-18T07:21:57.949Z,99239.91
2022-10-18T07:24:02.680Z,99239.06
2022-10-18T07:26:15.447Z,99250.41
2022-10-18T07:28:20.291Z,99251.31
2022-10-18T07:30:25.033Z,99249.56
2022-10-18T07:32:32.875Z,99254.88
2022-10-18T07:34:37.771Z,99266.22
2022-10-18T07:36:45.208Z,99262.81
2022-10-18T07:38:49.999Z,99262.03
2022-10-18T07:40:59.472Z,99263.00
2022-10-18T07:43:10.203Z,99262.16
2022-10-18T07:45:16.896Z,99260.25
2022-10-18T07:47:21.649Z,99267.06
2022-10-18T07:49:26.673Z,99269.53
2022-10-18T07:51:32.816Z,99265.78
2022-10-18T07:53:40.770Z,99270.03
2022-10-18T07:55:46.050Z,99265.41
2022-10-18T07:57:50.571Z,99265.34
2022-10-18T07:59:57.079Z,99266.75
2022-10-18T08:02:01.917Z,99268.28
2022-10-18T08:04:08.451Z,99267.25
2022-10-18T08:06:18.536Z,99266.09
2022-10-18T08:08:23.916Z,99264.78
2022-10-18T08:10:34.015Z,99265.41
2022-10-18T08:12:38.739Z,99260.13
2022-10-18T08:14:43.635Z,99259.09
2022-10-18T08:16:48.387Z,99261.47
2022-10-18T08:18:53.698Z,99267.19
2022-10-18T08:20:58.468Z,99269.59
2022-10-18T08:23:05.504Z,99271.13
2022-10-18T08:25:10.987Z,99272.63
2022-10-18T08:27:18.725Z,99272.16
2022-10-18T08:29:26.818Z,99274.47
2022-10-18T08:31:34.002Z,99275.06
2022-10-18T08:33:39.854Z,99272.94
2022-10-18T08:35:44.588Z,99280.44
2022-10-18T08:37:49.310Z,99275.66
2022-10-18T08:39:54.050Z,99267.34
2022-10-18T08:42:19.855Z,99265.06
2022-10-18T08:44:29.649Z,99273.34
2022-10-18T08:46:36.150Z,99261.47
2022-10-18T08:48:45.021Z,99256.63
2022-10-18T08:50:49.972Z,99262.31
2022-10-18T08:52:56.316Z,99253.34
2022-10-18T08:55:04.902Z,99263.19
2022-10-18T08:57:18.180Z,99248.69
2022-10-18T08:59:25.421Z,99254.38
2022-10-18T09:01:44.719Z,99242.91
2022-10-18T09:04:07.700Z,99241.41
2022-10-18T09:06:23.513Z,99228.72
2022-10-18T09:08:59.688Z,99229.91
2022-10-18T09:11:17.581Z,99232.78
2022-10-18T09:13:49.455Z,99220.03
2022-10-18T09:15:59.859Z,99230.34
2022-10-18T09:18:22.945Z,99227.50
2022-10-18T09:20:30.372Z,99208.38
2022-10-18T09:22:51.331Z,99200.22
2022-10-18T09:25:05.579Z,99195.22
2022-10-18T09:27:18.079Z,99194.59
2022-10-18T09:29:38.937Z,99197.16
2022-10-18T09:31:55.182Z,99199.31
2022-10-18T09:34:04.943Z,99197.06
2022-10-18T09:36:11.955Z,99199.28
2022-10-18T09:38:20.661Z,99211.47
2022-10-18T09:40:29.552Z,99206.47
2022-10-18T09:42:38.898Z,99210.19
2022-10-18T09:44:48.495Z,99211.16
2022-10-18T09:46:58.148Z,99212.09
2022-10-18T09:49:12.924Z,99203.97
2022-10-18T09:51:26.971Z,99217.19
2022-10-18T09:53:39.175Z,99216.97
2022-10-18T09:55:58.073Z,99212.53
2022-10-18T09:58:04.728Z,99215.94
2022-10-18T10:00:18.173Z,99215.59
2022-10-18T10:02:24.694Z,99218.34
2022-10-18T10:04:32.544Z,99215.59
2022-10-18T10:06:38.946Z,99210.81
2022-10-18T10:08:45.069Z,99217.91
2022-10-18T10:10:50.445Z,99211.34
2022-10-18T10:13:06.930Z,99216.63
2022-10-18T10:15:16.406Z,99219.50
2022-10-18T10:17:29.837Z,99218.13
2022-10-18T10:19:42.701Z,99217.25
2022-10-18T10:21:48.126Z,99220.69
2022-10-18T10:23:57.400Z,99218.47
2022-10-18T10:26:05.427Z,99227.25
2022-10-18T10:28:17.091Z,99212.44
2022-10-18T10:30:28.457Z,99209.03
2022-10-18T10:32:44.759Z,99220.47
2022-10-18T10:34:52.438Z,99211.84
2022-10-18T10:36:57.979Z,99219.13
2022-10-18T10:39:08.324Z,99216.69
2022-10-18T10:41:22.828Z,99215.59
2022-10-18T10:43:38.076Z,99231.88
2022-10-18T10:46:01.977Z,99240.94
2022-10-18T10:48:16.495Z,99239.09
2022-10-18T10:50:31.234Z,99270.19
2022-10-18T10:52:36.111Z,99269.53
2022-10-18T10:54:44.015Z,99271.16
2022-10-18T10:56:58.268Z,99274.47
2022-10-18T10:59:11.648Z,99262.53
2022-10-18T11:01:29.056Z,99258.22
2022-10-18T11:03:33.943Z,99266.97
2022-10-18T11:05:48.169Z,99265.88
2022-10-18T11:07:56.226Z,99269.53
2022-10-18T11:10:06.243Z,99264.25
2022-10-18T11:12:23.922Z,99268.59
2022-10-18T11:14:33.674Z,99263.78
2022-10-18T11:16:43.410Z,99275.66
2022-10-18T11:18:52.145Z,99379.44
2022-10-18T11:21:07.948Z,99354.06
2022-10-18T11:23:15.173Z,99336.69
2022-10-18T11:25:20.741Z,99327.56
2022-10-18T11:27:30.720Z,99330.81
2022-10-18T11:29:48.982Z,99318.75
2022-10-18T11:32:03.115Z,99312.28
2022-10-18T11:34:29.029Z,99316.06
2022-10-18T11:36:54.999Z,99313.50
2022-10-18T11:39:09.007Z,99305.16
2022-10-18T11:41:33.397Z,99307.22
2022-10-18T11:44:01.697Z,99307.38
2022-10-18T11:46:13.643Z,99301.25
2022-10-18T11:48:41.296Z,99302.03
2022-10-18T11:50:53.448Z,99298.09
2022-10-18T11:53:14.047Z,99299.03
2022-10-18T11:55:32.836Z,99304.09
2022-10-18T11:57:52.024Z,99293.16
2022-10-18T12:00:06.497Z,99294.34
2022-10-18T12:02:39.738Z,99320.50
2022-10-18T12:05:05.313Z,99320.44
2022-10-18T12:07:23.380Z,99333.38
2022-10-18T12:09:39.559Z,99324.19
2022-10-18T12:11:53.483Z,99330.56
2022-10-18T12:14:02.960Z,99329.56
2022-10-18T12:16:10.614Z,99320.53
2022-10-18T12:18:20.191Z,99316.53
2022-10-18T12:20:30.261Z,99302.44
2022-10-18T12:22:39.442Z,99297.81
2022-10-18T12:24:46.777Z,99297.50
2022-10-18T12:26:54.699Z,99294.00
2022-10-18T12:29:13.705Z,99299.09
2022-10-18T12:31:24.975Z,99294.66
2022-10-18T12:33:37.558Z,99292.34
2022-10-18T12:35:59.467Z,99288.66
2022-10-18T12:38:20.607Z,99288.66
2022-10-18T12:40:37.143Z,99286.13
2022-10-18T12:42:45.617Z,99286.50
2022-10-18T12:44:51.212Z,99290.25
2022-10-18T12:46:58.286Z,99280.38
2022-10-18T12:49:07.292Z,99285.09
2022-10-18T12:51:17.737Z,99273.69
2022-10-18T12:53:29.191Z,99268.72
2022-10-18T12:55:39.404Z,99273.16
2022-10-18T12:58:22.883Z,99266.72
2022-10-18T13:00:56.052Z,99271.34
2022-10-18T13:03:31.155Z,99268.59
2022-10-18T13:05:58.425Z,99271.63
2022-10-18T13:08:24.666Z,99277.66
2022-10-18T13:10:40.867Z,99268.53
2022-10-18T13:13:12.148Z,99257.31
2022-10-18T13:15:43.140Z,99262.94
2022-10-18T13:17:54.064Z,99260.50
2022-10-18T13:20:25.060Z,99263.13
2022-10-18T13:22:47.593Z,99262.88
2022-10-18T13:25:04.342Z,99266.47
2022-10-18T13:27:35.948Z,99273.03
2022-10-18T13:30:04.371Z,99280.22
2022-10-18T13:32:28.946Z,99277.56
2022-10-18T13:34:38.503Z,99285.84
2022-10-18T13:36:45.442Z,99280.47
2022-10-18T13:39:02.515Z,99285.69
2022-10-18T13:41:09.474Z,99292.91
2022-10-18T13:43:44.067Z,99294.34
2022-10-18T13:45:59.219Z,99288.41
2022-10-18T13:48:33.801Z,99297.09
2022-10-18T13:50:40.772Z,99303.66
2022-10-18T13:53:18.806Z,99308.19
2022-10-18T13:55:44.865Z,99305.63
2022-10-18T13:57:58.901Z,99303.66
2022-10-18T14:00:27.696Z,99298.88
2022-10-18T14:03:10.065Z,99293.00
2022-10-18T14:05:37.446Z,99294.03
2022-10-18T14:07:45.362Z,99299.22
2022-10-18T14:09:56.149Z,99302.63
2022-10-18T14:12:10.976Z,99304.50
2022-10-18T14:14:19.826Z,99301.22
2022-10-18T14:16:37.690Z,99304.25
2022-10-18T14:18:48.007Z,99291.53
2022-10-18T14:21:12.901Z,99295.88
2022-10-18T14:23:23.120Z,99298.78
2022-10-18T14:25:31.221Z,99296.06
2022-10-18T14:27:37.086Z,99295.50
2022-10-18T14:29:42.220Z,99284.75
2022-10-18T14:31:55.730Z,99292.56
2022-10-18T14:34:03.736Z,99290.09
2022-10-18T14:36:15.811Z,99278.31
2022-10-18T14:38:23.139Z,99292.56
2022-10-18T14:40:34.554Z,99288.88
2022-10-18T14:42:39.271Z,99287.56
2022-10-18T14:44:44.077Z,99279.72
2022-10-18T14:46:50.553Z,99282.56
2022-10-18T14:48:59.671Z,99273.16
2022-10-18T14:51:14.819Z,99267.88
2022-10-18T14:53:22.134Z,99268.59
2022-10-18T14:55:28.962Z,99262.09
2022-10-18T14:57:37.409Z,99262.66
2022-10-18T14:59:51.758Z,99261.91
2022-10-18T15:02:03.268Z,99253.34
2022-10-18T15:04:12.462Z,99256.81
2022-10-18T15:06:22.603Z,99259.00
2022-10-18T15:08:29.699Z,99259.06
2022-10-18T15:10:37.896Z,99258.69
2022-10-18T15:13:08.370Z,99259.84
2022-10-18T15:15:16.846Z,99261.44
2022-10-18T15:17:25.711Z,99261.66
2022-10-18T15:19:35.765Z,99266.81
2022-10-18T15:22:19.747Z,99262.22
2022-10-18T15:24:22.672Z,99265.13
2022-10-18T15:26:31.039Z,99267.88
2022-10-18T15:28:39.423Z,99258.63
2022-10-18T15:30:44.317Z,99263.25
2022-10-18T15:32:55.221Z,99256.63
2022-10-18T15:35:13.555Z,99261.06
2022-10-18T15:37:33.215Z,99255.97
2022-10-18T15:39:38.065Z,99259.56
2022-10-18T15:41:46.451Z,99252.59
2022-10-18T15:43:51.848Z,99251.91
2022-10-18T15:46:01.758Z,99255.69
2022-10-18T15:48:27.633Z,99266.81
2022-10-18T15:50:42.769Z,99257.66
2022-10-18T15:52:50.093Z,99265.94
2022-10-18T15:54:54.922Z,99259.28
2022-10-18T15:57:00.075Z,99262.69
2022-10-18T15:59:09.547Z,99265.34
2022-10-18T16:01:20.489Z,99258.22
2022-10-18T16:03:28.465Z,99269.06
2022-10-18T16:05:33.657Z,99278.88
2022-10-18T16:07:39.612Z,99279.72
2022-10-18T16:09:48.637Z,99281.53
2022-10-18T16:11:56.972Z,99288.09
2022-10-18T16:14:03.090Z,99288.25
2022-10-18T16:16:08.594Z,99290.50
2022-10-18T16:18:19.462Z,99298.75
2022-10-18T16:20:28.182Z,99299.13
2022-10-18T16:22:36.960Z,99314.34
2022-10-18T16:24:44.243Z,99310.34
2022-10-18T16:26:54.790Z,99315.81
2022-10-18T16:29:01.080Z,99318.78
2022-10-18T16:31:06.413Z,99323.38
2022-10-18T16:33:11.575Z,99325.16
2022-10-18T16:35:16.850Z,99327.78
2022-10-18T16:37:21.886Z,99328.97
2022-10-18T16:39:26.726Z,99327.97
2022-10-18T16:41:31.667Z,99337.75
2022-10-18T16:43:39.676Z,99343.03
2022-10-18T16:45:45.006Z,99345.72
2022-10-18T16:47:50.393Z,99346.56
2022-10-18T16:49:55.306Z,99351.66
2022-10-18T16:52:00.178Z,99356.28
2022-10-18T16:54:05.742Z,99353.72
2022-10-18T16:56:17.314Z,99355.31
2022-10-18T17:00:31.181Z,99362.13
2022-10-18T17:02:36.460Z,99363.75
2022-10-18T17:04:41.551Z,99369.03
2022-10-18T17:06:46.232Z,99371.84
2022-10-18T17:08:51.550Z,99372.69
2022-10-18T17:10:58.789Z,99374.53
2022-10-18T17:13:03.707Z,99379.75
2022-10-18T17:15:10.705Z,99376.84
2022-10-18T17:17:18.034Z,99379.22
2022-10-18T17:19:22.876Z,99374.91
2022-10-18T17:21:29.212Z,99378.47
2022-10-18T17:23:34.458Z,99379.31
2022-10-18T17:25:51.443Z,99381.88
2022-10-18T17:28:05.328Z,99389.84
2022-10-18T17:30:11.614Z,99391.56
2022-10-18T17:32:18.969Z,99387.31
2022-10-18T17:34:23.725Z,99391.28
2022-10-18T17:36:28.658Z,99398.53
2022-10-18T17:38:33.808Z,99396.97
2022-10-18T17:40:41.827Z,99397.97
2022-10-18T17:42:46.659Z,99401.91
2022-10-18T17:44:54.273Z,99407.78
2022-10-18T17:47:01.790Z,99414.63
2022-10-18T17:49:09.481Z,99418.22
2022-10-18T17:51:16.186Z,99413.78
2022-10-18T17:53:23.066Z,99422.72
2022-10-18T17:55:28.136Z,99422.72
2022-10-18T17:57:32.927Z,99419.41
2022-10-18T17:59:37.830Z,99422.28
2022-10-18T18:01:42.591Z,99424.00
2022-10-18T18:03:48.308Z,99422.03
2022-10-18T18:05:55.685Z,99423.59
2022-10-18T18:08:03.794Z,99420.34
2022-10-18T18:10:09.844Z,99418.56
2022-10-18T18:12:14.592Z,99415.16
2022-10-18T18:14:19.486Z,99415.91
2022-10-18T18:16:26.325Z,99417.44
2022-10-18T18:18:31.082Z,99420.97
2022-10-18T18:20:35.881Z,99415.75
2022-10-18T18:22:43.388Z,99420.88
2022-10-18T18:24:48.388Z,99419.06
2022-10-18T18:26:53.453Z,99425.16
2022-10-18T18:28:58.111Z,99422.72
2022-10-18T18:31:03.061Z,99421.03
2022-10-18T18:33:07.885Z,99420.50
2022-10-18T18:35:12.980Z,99425.63
2022-10-18T18:37:17.760Z,99416.88
2022-10-18T18:39:29.639Z,99417.78
2022-10-18T18:41:34.920Z,99423.91
2022-10-18T18:43:40.950Z,99423.03
2022-10-18T18:45:53.315Z,99417.63
2022-10-18T18:47:58.241Z,99417.78
2022-10-18T18:50:03.093Z,99424.31
2022-10-18T18:52:08.153Z,99419.28
2022-10-18T18:54:13.960Z,99420.69
2022-10-18T18:56:23.646Z,99429.91
2022-10-18T18:58:28.404Z,99433.94
2022-10-18T19:00:33.124Z,99436.09
2022-10-18T19:02:37.902Z,99432.78
2022-10-18T19:04:42.745Z,99431.31
2022-10-18T19:06:48.360Z,99435.03
2022-10-18T19:09:00.097Z,99428.28
2022-10-18T19:11:08.108Z,99432.00
2022-10-18T19:13:16.731Z,99438.13
2022-10-18T19:15:22.009Z,99426.97
2022-10-18T19:17:26.892Z,99427.91
2022-10-18T19:19:33.181Z,99431.53
2022-10-18T19:21:42.547Z,99431.53
2022-10-18T19:23:47.341Z,99433.47
2022-10-18T19:25:52.095Z,99435.38
2022-10-18T19:27:56.934Z,99437.31
2022-10-18T19:30:04.402Z,99436.47
2022-10-18T19:32:13.074Z,99430.47
2022-10-18T19:34:18.702Z,99429.47
2022-10-18T19:36:23.456Z,99430.09
2022-10-18T19:38:28.269Z,99434.47
2022-10-18T19:40:33.280Z,99427.63
2022-10-18T19:42:38.538Z,99429.47
2022-10-18T19:44:44.429Z,99440.09
2022-10-18T19:46:53.043Z,99436.63
2022-10-18T19:48:58.682Z,99441.28
2022-10-18T19:51:09.419Z,99438.78
2022-10-18T19:53:14.688Z,99446.97
2022-10-18T19:55:19.439Z,99439.22
2022-10-18T19:57:24.324Z,99441.16
2022-10-18T19:59:29.139Z,99445.63
2022-10-18T20:01:34.018Z,99445.91
2022-10-18T20:03:41.427Z,99451.31
2022-10-18T20:05:46.187Z,99448.91
2022-10-18T20:07:50.931Z,99451.53
2022-10-18T20:09:55.756Z,99453.19
2022-10-18T20:12:00.451Z,99446.06
2022-10-18T20:14:05.497Z,99440.75
2022-10-18T20:16:13.830Z,99442.44
2022-10-18T20:18:19.111Z,99439.81
2022-10-18T20:20:26.416Z,99435.34
2022-10-18T20:22:31.479Z,99436.19
2022-10-18T20:24:36.501Z,99431.88
2022-10-18T20:26:43.539Z,99431.06
2022-10-18T20:28:49.481Z,99432.34
2022-10-18T20:31:02.894Z,99440.59
2022-10-18T20:33:07.753Z,99441.53
2022-10-18T20:35:12.517Z,99440.69
2022-10-18T20:37:19.839Z,99451.03
2022-10-18T20:39:25.058Z,99447.19
2022-10-18T20:41:31.202Z,99445.06
2022-10-18T20:43:36.673Z,99448.38
2022-10-18T20:45:41.421Z,99445.75
2022-10-18T20:47:46.444Z,99438.81
2022-10-18T20:49:51.187Z,99442.44
2022-10-18T20:51:55.945Z,99448.78
2022-10-18T20:56:12.235Z,99448.41
2022-10-18T20:58:17.036Z,99453.16
2022-10-18T21:00:22.145Z,99452.47
2022-10-18T21:02:26.901Z,99439.38
2022-10-18T21:04:31.783Z,99443.00
2022-10-18T21:06:37.971Z,99443.22
2022-10-18T21:08:43.126Z,99450.25
2022-10-18T21:10:50.209Z,99446.13
2022-10-18T21:12:55.683Z,99446.19
2022-10-18T21:15:00.425Z,99453.34
2022-10-18T21:17:05.161Z,99451.00
2022-10-18T21:19:12.771Z,99456.41
2022-10-18T21:21:19.871Z,99451.16
2022-10-18T21:23:25.366Z,99453.78
2022-10-18T21:25:30.160Z,99450.31
2022-10-18T21:27:37.471Z,99451.28
2022-10-18T21:29:42.228Z,99452.19
2022-10-18T21:31:47.338Z,99458.19
2022-10-18T21:33:56.790Z,99455.28
2022-10-18T21:36:04.111Z,99448.03
2022-10-18T21:38:08.972Z,99448.94
2022-10-18T21:40:14.344Z,99445.63
2022-10-18T21:42:19.125Z,99447.81
2022-10-18T21:44:26.533Z,99443.75
2022-10-18T21:46:31.376Z,99450.78
2022-10-18T21:48:36.461Z,99445.56
2022-10-18T21:50:41.217Z,99440.41
2022-10-18T21:52:46.115Z,99437.16
2022-10-18T21:54:50.846Z,99442.63
2022-10-18T21:56:55.945Z,99438.28
2022-10-18T21:59:01.025Z,99442.03
2022-10-18T22:01:10.433Z,99442.88
2022-10-18T22:03:16.668Z,99442.88
2022-10-18T22:05:21.889Z,99431.41
2022-10-18T22:07:26.741Z,99433.19
2022-10-18T22:09:31.571Z,99428.81
2022-10-18T22:11:38.979Z,99428.81
2022-10-18T22:13:44.526Z,99428.06
2022-10-18T22:15:49.341Z,99417.56
2022-10-18T22:17:56.643Z,99428.16
2022-10-18T22:20:01.353Z,99427.47
2022-10-18T22:22:06.107Z,99422.28
2022-10-18T22:24:12.687Z,99421.50
2022-10-18T22:26:19.173Z,99427.53
2022-10-18T22:28:24.021Z,99410.94
2022-10-18T22:30:28.707Z,99409.22
2022-10-18T22:32:33.426Z,99411.84
2022-10-18T22:34:40.769Z,99407.59
2022-10-18T22:36:45.829Z,99416.50
2022-10-18T22:38:50.584Z,99413.22
2022-10-18T22:40:55.316Z,99418.47
2022-10-18T22:43:00.057Z,99407.94
2022-10-18T22:45:04.912Z,99409.56
2022-10-18T22:47:09.934Z,99409.56
2022-10-18T22:49:15.214Z,99406.88
2022-10-18T22:51:22.494Z,99411.28
2022-10-18T22:53:27.504Z,99401.63
2022-10-18T22:55:32.210Z,99410.28
2022-10-18T22:57:36.949Z,99405.88
2022-10-18T22:59:41.861Z,99409.31
2022-10-18T23:01:46.639Z,99406.03
2022-10-18T23:03:55.610Z,99415.72
2022-10-18T23:06:00.711Z,99412.56
2022-10-18T23:08:08.143Z,99426.94
2022-10-18T23:10:12.870Z,99422.75
2022-10-18T23:12:17.596Z,99429.88
2022-10-18T23:14:22.435Z,99426.34
2022-10-18T23:16:27.326Z,99428.91
2022-10-18T23:18:32.447Z,99427.81
2022-10-18T23:20:37.191Z,99430.09
2022-10-18T23:22:41.940Z,99425.56
2022-10-18T23:24:49.393Z,99432.72
2022-10-18T23:26:54.203Z,99425.22
2022-10-18T23:28:59.267Z,99426.03
2022-10-18T23:31:07.689Z,99431.19
2022-10-18T23:33:12.395Z,99421.38
2022-10-18T23:35:17.148Z,99418.56
2022-10-18T23:37:21.978Z,99421.81
2022-10-18T23:39:26.893Z,99423.59
2022-10-18T23:41:34.211Z,99430.56
2022-10-18T23:43:39.503Z,99424.69
2022-10-18T23:45:43.990Z,99424.97
2022-10-18T23:47:48.746Z,99431.00
2022-10-18T23:49:55.888Z,99430.09
2022-10-18T23:52:00.652Z,99428.56
2022-10-18T23:54:05.372Z,99432.97
2022-10-18T23:56:12.629Z,99432.97
2022-10-18T23:58:19.964Z,99422.59
